AirNav   Everest Fuels
 
 1349 users online  

WA39 Crow Valley Airport
Eastsound, Washington, USA

GOING TO EASTSOUND?


FAA INFORMATION EFFECTIVE 11 AUGUST 2022

Location

FAA Identifier: WA39
Lat/Long: 48-39-01.3000N 122-57-12.9100W
48-39.021667N 122-57.215167W
48.6503611,-122.9535861
(estimated)
Elevation: 113 ft. / 34 m (estimated)
From city: 3 miles SSW of EASTSOUND, WA
Time zone: UTC -7 (UTC -8 during Standard Time)
Zip code: 98222

Airport Operations

Airport use: Private use. Permission required prior to landing
Activation date: 09/2018
Control tower: no
ARTCC: SEATTLE CENTER
FSS: SEATTLE FLIGHT SERVICE STATION
Attendance: 
Segmented circle: no

Airport Communications

WX AWOS-3 at ORS (4 nm NE): 135.425 (360-376-6045)
WX ASOS at FHR (8 nm S): 135.675 (360-378-8491)
WX ASOS at BLI (19 nm NE): PHONE 360-671-8688

Nearby radio navigation aids

VOR radial/distance  VOR name  Freq  Var
YYJr085/21.5VICTORIA VOR/DME113.7017E
HUHr200/23.1WHATCOM VORTAC113.0020E
CVVr320/26.0PENN COVE VOR/DME117.2019E
YVRr146/26.8VANCOUVER VOR/DME115.9017E

 
NDB name  Hdg/Dist  Freq  Var  ID
FRIDAY HARBOR002/8.828417EFHR ..-. .... .-.
SKAGIT/BAY VIEW281/23.924016EBVS -... ...- ...
EDIZ HOOK013/35.533817ENOW -. --- .--

Airport Services

Runway Information

Runway 3/21

Dimensions: 1171 x 24 ft. / 357 x 7 m
Surface: turf
RUNWAY 3  RUNWAY 21
Latitude: 48-38.937167N48-39.106167N
Longitude: 122-57.284833W122-57.145500W
Elevation: 112.0 ft.113.0 ft.
Traffic pattern: rightleft

Airport Ownership and Management from official FAA records

Ownership: Privately-owned
Owner: JERRY SCHMIDT
2831 CROW VALLEY RD
EASTSOUND, WA 98245
Phone 360 376 2244
Manager: JERRY SCHMIDT
2831 CROW VALLEY RD
EASTSOUND, WA 98245
Phone 360 376 2244

Airport Operational Statistics

Aircraft based on the field: 4
Single engine airplanes: 1
Multi engine airplanes: 1
Helicopters: 1
Gliders airplanes: 1
    

Additional Remarks

FOR CD CTC SEATTLE ARTCC AT 253-351-3694.

Instrument Procedures

There are no published instrument procedures at WA39.

Some nearby airports with instrument procedures:

KORS - Orcas Island Airport (4 nm NE)
KFHR - Friday Harbor Airport (8 nm S)
KBLI - Bellingham International Airport (19 nm NE)
KNUW - Whidbey Island Naval Air Station (Ault Field) Airport (21 nm SE)
KBVS - Skagit Regional Airport (24 nm SE)
 
Loc | Ops | Rwys | IFR | FBO | Links
Com | Nav | Svcs | Stats | Notes
Aerial photo
No photo
 
Airport distance calculator
Flying to Crow Valley Airport? Find the distance to fly.

From to WA39

Sunrise and sunset
Times for 16-Aug-2022
 Local
(UTC-7)
 Zulu
(UTC)
Morning civil twilight05:3312:33
Sunrise06:0813:08
Sunset20:2503:25
Evening civil twilight20:5903:59

Current date and time
Zulu (UTC)  17-Aug-2022 00:42:41
Local (UTC-7)  16-Aug-2022 17:42:41
 
METAR
KORS 
4nm NE 
170015Z AUTO 35005KT 10SM CLR 21/12 A3003 RMK AO2
CWEZ 
8nm NW 
170000Z AUTO 06001KT 24/12 RMK AO1 SLP170 T02430116 57011
KFHR 
9nm S 
162353Z AUTO 00000KT 10SM CLR 24/11 A3005 RMK AO2 SLP174 T02390111 10256 20167 58013
CWZO 
13nm SW 
170000Z AUTO 17007KT RMK AO1
CWYJ 
18nm SW 
170000Z AUTO 10001KT 26/08 RMK AO1 SLP174 T02590075 57011
CYYJ 
19nm W 
170000Z 13004KT 100V160 30SM FEW035 FEW250 25/11 A3003 RMK CU1CI1 CU TR CI TR SLP172 DENSITY ALT 1100FT
KBLI 
19nm NE 
162353Z 26004KT 10SM CLR 26/14 A3003 RMK AO2 SLP174 T02610139 10272 20194 58013
TAF
CYYJ 
19nm W 
161740Z 1618/1718 12005KT P6SM FEW250 BECMG 1705/1707 27006KT BECMG 1716/1718 07007KT RMK NXT FCST BY 170000Z
KBLI 
19nm NE 
161720Z 1618/1718 VRB05KT P6SM SKC FM162100 22008KT P6SM FEW250 FM170200 19005KT P6SM FEW250 FM171200 17006KT P6SM SKC
CYWH 
20nm SW 
162043Z 1621/1704 22005KT P6SM FEW150 SCT220 RMK NXT FCST BY 171400Z
KNUW 
22nm SE 
1700/1723 26008KT 9999 FEW060 FEW250 QNH3004INS TEMPO 1712/1715 22005KT 8000 BR SCT005 BKN012 FM171600 24008KT 9999 SCT025 SCT150 BKN250 QNH3000INS FM171800 25008KT 9999 FEW040 FEW250 QNH3006INS T11/1711Z T21/1722Z COR 1705 FS30188
NOTAMs
Click for the latest NOTAMs
NOTAMs are issued by the DoD/FAA and will open in a separate window not controlled by AirNav.

 

 
 

Would you like to see your business listed on this page?

 If your business provides an interesting product or service to pilots, flight crews, aircraft, or users of the Crow Valley Airport, you should consider listing it here.  To start the listing process, click on the button below
 
Add a business
 

Other Pages about Crow Valley Airport

Update a link
 
Copyright © AirNav, LLC. All rights reserved. Privacy Policy  Contact